CYNR

METAR CYNR 030200Z AUTO 00000KT 9SM FEW078 14/08 A2973 RMK AO2 SLP073
METAR
LOCATION
CYNR
DATE - TIME
030200Z
WIND
CALM WIND
VISIBILITY
9SM
RUNWAY VISUAL RANGE
NOT REPORTED
WEATHER
CLOUDINESS
FEW078
TEMP / DEWPOINT
14 ºC / 8 ºC
ALTIMETER
29.73 in. Hg
RECENT WEATHER
NOT REPORTED
WIND SHEAR
NOT REPORTED
REMARKS
RMK AO2 SLP073
SEA LEVEL PRESSURE: hPa

CYNR

METAR CYNR 030100Z AUTO 03003KT 9SM SCT062 BKN084 15/07 A2973 RMK AO2 SLP072
METAR
LOCATION
CYNR
DATE - TIME
030100Z
WIND
030 TRUE @ 3 KNOTS
VISIBILITY
9SM
RUNWAY VISUAL RANGE
NOT REPORTED
WEATHER
CLOUDINESS
SCT062 BKN084
TEMP / DEWPOINT
15 ºC / 7 ºC
ALTIMETER
29.73 in. Hg
RECENT WEATHER
NOT REPORTED
WIND SHEAR
NOT REPORTED
REMARKS
RMK AO2 SLP072
SEA LEVEL PRESSURE: hPa

CYNR

METAR CYNR 030000Z AUTO 04006KT 010V080 9SM SCT035 BKN049 17/09 A2972 RMK AO2 SLP070
METAR
LOCATION
CYNR
DATE - TIME
030000Z
WIND
040 TRUE @ 6 KNOTS VARYING 010 TO 080
VISIBILITY
9SM
RUNWAY VISUAL RANGE
NOT REPORTED
WEATHER
CLOUDINESS
SCT035 BKN049
TEMP / DEWPOINT
17 ºC / 9 ºC
ALTIMETER
29.72 in. Hg
RECENT WEATHER
NOT REPORTED
WIND SHEAR
NOT REPORTED
REMARKS
RMK AO2 SLP070
SEA LEVEL PRESSURE: hPa

Your time UTC time
 
 
Weather data provided by AXYS Technologies Inc., www.axystechnologies.com
 
Station History